11 de agosto de 2022

Hora Código Clima Temp. Visibilidade Tecto Vento METAR/SPECI
19:00
V
29 °C 10 km+ - 040° 040° 9 kt METAR LFMP 111700Z AUTO 04009KT CAVOK 29/24 Q1013 NOSIG
18:30
V
30 °C 10 km+ - 060° 060° 9 kt METAR LFMP 111630Z AUTO 06009KT CAVOK 30/24 Q1013 NOSIG
18:00
V
30 °C 10 km+ - 080° 080° 8 kt METAR LFMP 111600Z AUTO 08008KT 040V120 CAVOK 30/23 Q1013 NOSIG
17:30
V
31 °C 10 km+ - 090° 090° 9 kt METAR LFMP 111530Z AUTO 09009KT 040V130 CAVOK 31/22 Q1014 NOSIG
17:00
V
31 °C 10 km+ - 090° 090° 10 kt METAR LFMP 111500Z AUTO 09010KT 050V120 9999 FEW024 31/23 Q1014 NOSIG
16:30
V
32 °C 10 km+ - 090° 090° 10 kt METAR LFMP 111430Z AUTO 09010KT 050V130 9999 SCT025 32/23 Q1014 NOSIG
16:00
V
31 °C 10 km+ - 080° 080° 10 kt METAR LFMP 111400Z AUTO 08010KT 9999 SCT027 31/23 Q1015 NOSIG
15:30
M
32 °C 10 km+ 2.600 ft 080° 080° 9 kt METAR LFMP 111330Z AUTO 08009KT 050V120 9999 BKN026 32/23 Q1015 NOSIG
15:00
V
32 °C 10 km+ - 100° 100° 9 kt METAR LFMP 111300Z AUTO 10009KT 040V130 9999 SCT025 32/23 Q1015 NOSIG
14:30
V
31 °C 10 km+ - 080° 080° 9 kt METAR LFMP 111230Z AUTO 08009KT 040V120 9999 SCT026 SCT031 31/23 Q1015 NOSIG
14:00
M
31 °C 10 km+ 2.600 ft 070° 070° 10 kt METAR LFMP 111200Z AUTO 07010KT 030V100 9999 BKN026 BKN033 31/22 Q1016 NOSIG
13:30
M
30 °C 10 km+ 2.800 ft 090° 090° 9 kt METAR LFMP 111130Z AUTO 09009KT 050V140 9999 BKN028 30/22 Q1016 NOSIG
13:00
M
31 °C 10 km+ 2.600 ft 060° 060° 7 kt METAR LFMP 111100Z AUTO 06007KT 350V120 9999 BKN026 BKN033 31/22 Q1016 NOSIG
12:30
M
31 °C 10 km+ 2.400 ft 080° 080° 6 kt METAR LFMP 111030Z AUTO 08006KT 360V120 9999 BKN024 BKN031 31/22 Q1016 NOSIG
12:00
V
30 °C 10 km+ - 080° 080° 8 kt METAR LFMP 111000Z AUTO 08008KT 040V110 9999 SCT023 SCT032 30/22 Q1016 NOSIG
11:30
V
29 °C 10 km+ - 070° 070° 7 kt METAR LFMP 110930Z AUTO 07007KT 9999 SCT020 29/22 Q1016 NOSIG
11:00
M
28 °C 10 km+ 2.500 ft 080° 080° 7 kt METAR LFMP 110900Z AUTO 08007KT 020V120 9999 SCT017 BKN025 28/23 Q1016 NOSIG
10:30
M
28 °C 10 km+ 2.800 ft 050° 050° 7 kt METAR LFMP 110830Z AUTO 05007KT 9999 SCT015 SCT021 BKN028 28/23 Q1016 NOSIG
10:00
M
27 °C 10 km+ 1.700 ft 060° 060° 7 kt METAR LFMP 110800Z AUTO 06007KT 9999 SCT012 BKN017 BKN024 27/23 Q1016 NOSIG
09:30
M
27 °C 10 km+ 1.100 ft 050° 050° 8 kt METAR LFMP 110730Z AUTO 05008KT 010V080 9999 BKN011 BKN016 BKN021 27/23 Q1016 TEMPO FEW008 BKN018
09:00
M
26 °C 10 km+ 1.100 ft 330° 330° 6 kt METAR LFMP 110700Z AUTO 33006KT 300V020 9999 BKN011 BKN018 26/22 Q1016 TEMPO FEW008 BKN018 BECMG 08010KT
08:30
V
26 °C 10 km+ - 330° 330° 5 kt METAR LFMP 110630Z AUTO 33005KT 300V360 9999 FEW009 SCT020 26/23 Q1016 TEMPO BKN008 BECMG 08010KT
08:00
M
25 °C 10 km+ 1.700 ft 310° 310° 5 kt METAR LFMP 110600Z AUTO 31005KT 9999 SCT010 BKN017 25/22 Q1016 TEMPO BKN008
07:30
M
25 °C 10 km+ 1.500 ft 300° 300° 4 kt METAR LFMP 110530Z AUTO 30004KT 9999 SCT010 BKN015 25/22 Q1016 TEMPO BKN008
07:00
I
25 °C 10 km+ 900 ft 300° 300° 5 kt METAR LFMP 110500Z AUTO 30005KT 9999 BKN009 OVC016 25/22 Q1015 NOSIG
06:30
M
24 °C 10 km+ 1.000 ft 260° 260° 4 kt METAR LFMP 110430Z AUTO 26004KT 9999 BKN010 BKN016 24/21 Q1015 NOSIG
06:00
M
24 °C 10 km+ 1.000 ft 300° 300° 5 kt METAR LFMP 110400Z AUTO 30005KT 9999 BKN010 BKN015 24/21 Q1015 NOSIG
05:30
M
22 °C 10 km+ 1.000 ft 260° 260° 5 kt METAR LFMP 110330Z AUTO 26005KT 9999 BKN010 22/21 Q1015 NOSIG
05:00
V
22 °C 10 km+ - 250° 250° 4 kt METAR LFMP 110300Z AUTO 25004KT 9999 FEW011 22/20 Q1015 TEMPO BKN008
04:30
V
23 °C 10 km+ - Var 000° 0 kt METAR LFMP 110230Z AUTO 00000KT 9999 FEW011 23/20 Q1015
04:00
V
23 °C 10 km+ - Var Var 1 kt METAR LFMP 110200Z AUTO VRB01KT CAVOK 23/20 Q1015
03:30
V
23 °C 10 km+ - 230° 230° 4 kt METAR LFMP 110130Z AUTO 23004KT CAVOK 23/21 Q1015
03:00
V
24 °C 10 km+ - 240° 240° 5 kt METAR LFMP 110100Z AUTO 24005KT CAVOK 24/21 Q1015
02:30
V
24 °C 10 km+ - 340° 340° 4 kt METAR LFMP 110030Z AUTO 34004KT 300V020 CAVOK 24/22 Q1015
02:00
V
24 °C 10 km+ - 280° 280° 4 kt METAR LFMP 110000Z AUTO 28004KT CAVOK 24/22 Q1015
01:30
V
25 °C 10 km+ - 010° 010° 5 kt METAR LFMP 102330Z AUTO 01005KT 330V030 CAVOK 25/23 Q1015
01:00
V
25 °C 10 km+ - 030° 030° 6 kt METAR LFMP 102300Z AUTO 03006KT CAVOK 25/23 Q1015
00:30
V
25 °C 10 km+ - 040° 040° 5 kt METAR LFMP 102230Z AUTO 04005KT CAVOK 25/23 Q1015
00:00
V
25 °C 10 km+ - 030° 030° 6 kt METAR LFMP 102200Z AUTO 03006KT CAVOK 25/22 Q1015

10 de agosto de 2022

Hora Código Clima Temp. Visibilidade Tecto Vento METAR/SPECI
23:30
V
26 °C 10 km+ - 040° 040° 3 kt METAR LFMP 102130Z AUTO 04003KT CAVOK 26/22 Q1015 TEMPO BKN008
23:00
V
26 °C 10 km+ - Var Var 2 kt METAR LFMP 102100Z AUTO VRB02KT CAVOK 26/22 Q1015 TEMPO BKN008
22:30
V
26 °C 10 km+ - Var Var 3 kt METAR LFMP 102030Z AUTO VRB03KT CAVOK 26/22 Q1015 TEMPO BKN008
22:00
V
27 °C 10 km+ - 360° 360° 4 kt METAR LFMP 102000Z AUTO 36004KT 320V040 CAVOK 27/22 Q1015 TEMPO BKN008
21:30
V
27 °C 10 km+ - 350° 350° 6 kt METAR LFMP 101930Z AUTO 35006KT 320V030 CAVOK 27/23 Q1015 TEMPO BKN008
21:00
V
27 °C 10 km+ - 350° 350° 6 kt METAR LFMP 101900Z AUTO 35006KT 320V030 CAVOK 27/23 Q1015 TEMPO BKN008
20:30
V
28 °C 10 km+ - 360° 360° 4 kt METAR LFMP 101830Z AUTO 36004KT 310V040 CAVOK 28/22 Q1015 TEMPO BKN008
20:00
V
28 °C 10 km+ - 040° 040° 7 kt METAR LFMP 101800Z AUTO 04007KT CAVOK 28/22 Q1015 TEMPO BKN008
19:30
V
29 °C 10 km+ - 060° 060° 8 kt METAR LFMP 101730Z AUTO 06008KT 030V100 CAVOK 29/22 Q1014 TEMPO BKN008
19:00
V
29 °C 10 km+ - 080° 080° 9 kt METAR LFMP 101700Z AUTO 08009KT 050V110 CAVOK 29/21 Q1015 NOSIG
18:30
V
30 °C 10 km+ - 080° 080° 10 kt METAR LFMP 101630Z AUTO 08010KT CAVOK 30/22 Q1015 BECMG 02008KT
18:00
V
31 °C 10 km+ - 080° 080° 10 kt METAR LFMP 101600Z AUTO 08010KT 050V110 CAVOK 31/23 Q1015 NOSIG
17:30
V
31 °C 10 km+ - 080° 080° 8 kt METAR LFMP 101530Z AUTO 08008KT 040V140 CAVOK 31/22 Q1015 NOSIG
17:00
V
31 °C 10 km+ - 080° 080° 9 kt METAR LFMP 101500Z AUTO 08009KT 050V110 CAVOK 31/21 Q1015 NOSIG
16:30
V
32 °C 10 km+ - 080° 080° 8 kt METAR LFMP 101430Z AUTO 08008KT 040V110 CAVOK 32/20 Q1015 NOSIG
16:00
V
32 °C 10 km+ - 070° 070° 9 kt METAR LFMP 101400Z AUTO 07009KT 030V110 CAVOK 32/19 Q1016 NOSIG
15:30
V
31 °C 10 km+ - 060° 060° 10 kt METAR LFMP 101330Z AUTO 06010KT 020V080 CAVOK 31/21 Q1016 NOSIG
15:00
V
31 °C 10 km+ - 080° 080° 9 kt METAR LFMP 101300Z AUTO 08009KT 050V110 CAVOK 31/22 Q1016 NOSIG
14:30
V
31 °C 10 km+ - 060° 060° 10 kt METAR LFMP 101230Z AUTO 06010KT 030V090 CAVOK 31/22 Q1016 NOSIG
14:00
V
31 °C 10 km+ - 060° 060° 10 kt METAR LFMP 101200Z AUTO 06010KT 020V090 CAVOK 31/22 Q1016 NOSIG
13:30
V
31 °C 10 km+ - 060° 060° 10 kt METAR LFMP 101130Z AUTO 06010KT 030V090 CAVOK 31/21 Q1016 NOSIG
13:00
V
30 °C 10 km+ - 060° 060° 9 kt METAR LFMP 101100Z AUTO 06009KT 030V090 CAVOK 30/22 Q1017 NOSIG
12:30
V
30 °C 10 km+ - 050° 050° 9 kt METAR LFMP 101030Z AUTO 05009KT 020V090 CAVOK 30/22 Q1017 NOSIG
12:00
V
29 °C 10 km+ - 050° 050° 10 kt METAR LFMP 101000Z AUTO 05010KT CAVOK 29/21 Q1017 NOSIG
11:30
V
29 °C 10 km+ - 070° 070° 9 kt METAR LFMP 100930Z AUTO 07009KT 030V100 CAVOK 29/21 Q1017 NOSIG
11:00
V
29 °C 10 km+ - 060° 060° 9 kt METAR LFMP 100900Z AUTO 06009KT 030V100 CAVOK 29/21 Q1017 NOSIG
10:30
V
28 °C 10 km+ - 070° 070° 8 kt METAR LFMP 100830Z AUTO 07008KT 040V110 CAVOK 28/21 Q1017 NOSIG
10:00
V
28 °C 10 km+ - 050° 050° 4 kt METAR LFMP 100800Z AUTO 05004KT 350V110 CAVOK 28/20 Q1017 NOSIG
09:30
V
27 °C 10 km+ - Var Var 3 kt METAR LFMP 100730Z AUTO VRB03KT CAVOK 27/19 Q1017 NOSIG
09:00
V
26 °C 10 km+ - Var Var 3 kt METAR LFMP 100700Z AUTO VRB03KT CAVOK 26/19 Q1017 TEMPO BKN006
08:30
V
25 °C 10 km+ - Var Var 1 kt METAR LFMP 100630Z AUTO VRB01KT CAVOK 25/15 Q1017 TEMPO BKN006
08:00
V
23 °C 10 km+ - Var Var 2 kt METAR LFMP 100600Z AUTO VRB02KT CAVOK 23/13 Q1017 TEMPO BKN006
07:30
V
22 °C 10 km+ - 050° 050° 3 kt METAR LFMP 100530Z AUTO 05003KT CAVOK 22/14 Q1017 TEMPO BKN006
07:00
V
22 °C 10 km+ - 240° 240° 6 kt METAR LFMP 100500Z AUTO 24006KT CAVOK 22/14 Q1016 TEMPO BKN006
06:30
V
21 °C 10 km+ - 250° 250° 5 kt METAR LFMP 100430Z AUTO 25005KT CAVOK 21/14 Q1016 TEMPO BKN006
06:00
V
21 °C 10 km+ - 250° 250° 4 kt METAR LFMP 100400Z AUTO 25004KT CAVOK 21/14 Q1016 TEMPO BKN006
05:30
V
22 °C 10 km+ - 250° 250° 5 kt METAR LFMP 100330Z AUTO 25005KT CAVOK 22/14 Q1016 TEMPO BKN006
05:00
V
23 °C 10 km+ - 320° 320° 4 kt METAR LFMP 100300Z AUTO 32004KT 270V360 CAVOK 23/16 Q1016 TEMPO BKN006
04:30
V
23 °C 10 km+ - 050° 050° 3 kt METAR LFMP 100230Z AUTO 05003KT CAVOK 23/16 Q1016
04:00
V
23 °C 10 km+ - 060° 060° 4 kt METAR LFMP 100200Z AUTO 06004KT CAVOK 23/13 Q1016
03:30
V
25 °C 10 km+ - Var Var 2 kt METAR LFMP 100130Z AUTO VRB02KT CAVOK 25/12 Q1016
03:00
V
25 °C 10 km+ - 270° 270° 6 kt METAR LFMP 100100Z AUTO 27006KT CAVOK 25/12 Q1016
02:30
V
26 °C 10 km+ - 290° 290° 3 kt METAR LFMP 100030Z AUTO 29003KT 210V360 CAVOK 26/12 Q1016
02:00
V
25 °C 10 km+ - 110° 110° 2 kt METAR LFMP 100000Z AUTO 11002KT CAVOK 25/12 Q1016
01:30
V
25 °C 10 km+ - Var Var 3 kt METAR LFMP 092330Z AUTO VRB03KT CAVOK 25/12 Q1016
01:00
V
26 °C 10 km+ - 270° 270° 5 kt METAR LFMP 092300Z AUTO 27005KT CAVOK 26/12 Q1016
00:30
V
26 °C 10 km+ - 250° 250° 7 kt METAR LFMP 092230Z AUTO 25007KT CAVOK 26/12 Q1016
00:00
V
26 °C 10 km+ - 230° 230° 8 kt METAR LFMP 092200Z AUTO 23008KT CAVOK 26/12 Q1016

9 de agosto de 2022

Hora Código Clima Temp. Visibilidade Tecto Vento METAR/SPECI
23:30
V
26 °C 10 km+ - 240° 240° 5 kt METAR LFMP 092130Z AUTO 24005KT CAVOK 26/14 Q1016 NOSIG
23:00
V
27 °C 10 km+ - 240° 240° 5 kt METAR LFMP 092100Z AUTO 24005KT CAVOK 27/12 Q1016 NOSIG
22:30
V
27 °C 10 km+ - 250° 250° 5 kt METAR LFMP 092030Z AUTO 25005KT CAVOK 27/12 Q1016 NOSIG
22:00
V
29 °C 10 km+ - 240° 240° 5 kt METAR LFMP 092000Z AUTO 24005KT CAVOK 29/12 Q1016 NOSIG
21:30
V
29 °C 10 km+ - 230° 230° 4 kt METAR LFMP 091930Z AUTO 23004KT CAVOK 29/11 Q1016 NOSIG
21:00
V
30 °C 10 km+ - 260° 260° 4 kt METAR LFMP 091900Z AUTO 26004KT CAVOK 30/12 Q1016 NOSIG
20:30
V
30 °C 10 km+ - 260° 260° 3 kt METAR LFMP 091830Z AUTO 26003KT 200V270 CAVOK 30/12 Q1016 NOSIG
20:00
V
31 °C 10 km+ - Var Var 2 kt METAR LFMP 091800Z AUTO VRB02KT CAVOK 31/11 Q1016 NOSIG
19:30
V
31 °C 10 km+ - Var Var 3 kt METAR LFMP 091730Z AUTO VRB03KT CAVOK 31/11 Q1016 NOSIG
19:00
V
31 °C 10 km+ - 170° 170° 3 kt METAR LFMP 091700Z AUTO 17003KT 130V200 CAVOK 31/12 Q1016 NOSIG
18:30
V
31 °C 10 km+ - Var Var 3 kt METAR LFMP 091630Z AUTO VRB03KT CAVOK 31/13 Q1016 NOSIG
18:00
V
31 °C 10 km+ - 110° 110° 6 kt METAR LFMP 091600Z AUTO 11006KT 080V140 CAVOK 31/12 Q1016 NOSIG
17:30
V
31 °C 10 km+ - 100° 100° 7 kt METAR LFMP 091530Z AUTO 10007KT 080V140 CAVOK 31/12 Q1016 NOSIG
17:00
V
31 °C 10 km+ - 130° 130° 7 kt METAR LFMP 091500Z AUTO 13007KT 090V160 CAVOK 31/12 Q1016 NOSIG
Dados mais antigos

Nós e terceiros acompanhamos seu comportamento na internet em nosso site com cookies. Se você continuar, nós assumimos que você concorda com nossa política de cookies. Saiba mais